Time;durP1;ratioP1;P1;durP2;ratioP2;P2;SDS_P1;SDS_P2;PMS_P1;PMS_P2;Temp;Humidity;BMP_temperature;BMP_pressure;BME280_temperature;BME280_humidity;BME280_pressure;Samples;Min_cycle;Max_cycle;Signal;HPM_P1;HPM_P2
2021/05/01 00:01:37;;;;;;;3.55;2.62;;;;;;;21.31;52.95;100445.36;1746241;81;21153;-60
2021/05/01 00:04:04;;;;;;;4.40;3.08;;;;;;;21.29;52.96;100447.09;1745699;81;22136;-60
2021/05/01 00:06:31;;;;;;;3.47;2.42;;;;;;;21.28;52.97;100457.91;1742938;81;21087;-60
2021/05/01 00:08:57;;;;;;;3.98;2.77;;;;;;;21.28;52.96;100460.67;1744516;81;21563;-60
2021/05/01 00:11:25;;;;;;;3.50;2.70;;;;;;;21.28;52.97;100461.25;1746953;81;21149;-60
2021/05/01 00:13:56;;;;;;;3.98;2.77;;;;;;;21.26;52.98;100467.70;1743154;81;21127;-60
2021/05/01 00:16:24;;;;;;;3.00;2.33;;;;;;;21.25;52.98;100469.64;1738076;81;22514;-60
2021/05/01 00:18:51;;;;;;;3.72;2.55;;;;;;;21.25;52.99;100474.36;1684841;84;21165;-60
2021/05/01 00:21:17;;;;;;;3.85;2.75;;;;;;;21.24;52.99;100469.39;1704759;82;21549;-60
2021/05/01 00:23:44;;;;;;;3.30;2.75;;;;;;;21.24;53.00;100474.11;1696322;82;21589;-60
2021/05/01 00:26:11;;;;;;;3.95;2.83;;;;;;;21.22;53.00;100466.13;1746033;80;21037;-60
2021/05/01 00:28:41;;;;;;;4.45;2.90;;;;;;;21.21;53.00;100459.00;1737790;81;21179;-60
2021/05/01 00:31:07;;;;;;;3.35;2.77;;;;;;;21.21;53.01;100461.77;1730209;81;21273;-60
2021/05/01 00:33:34;;;;;;;3.00;2.30;;;;;;;21.20;53.02;100463.47;1733171;81;21203;-60
2021/05/01 00:36:01;;;;;;;2.85;2.22;;;;;;;21.20;53.02;100455.17;1746981;81;21117;-60
2021/05/01 00:38:28;;;;;;;4.45;2.80;;;;;;;21.18;53.04;100455.48;1719890;82;21580;-60
2021/05/01 00:40:54;;;;;;;3.72;2.42;;;;;;;21.19;53.04;100464.03;1752128;80;21332;-61
2021/05/01 00:43:21;;;;;;;3.87;2.72;;;;;;;21.17;53.04;100462.19;1751998;80;21125;-62
2021/05/01 00:45:47;;;;;;;3.27;2.58;;;;;;;21.17;53.04;100469.67;1755375;81;21627;-61
2021/05/01 00:48:14;;;;;;;3.92;2.60;;;;;;;21.15;53.05;100461.69;1756250;80;21164;-60
2021/05/01 00:50:40;;;;;;;3.15;2.40;;;;;;;21.15;53.05;100453.95;1752614;80;21514;-60
2021/05/01 00:53:06;;;;;;;3.90;2.55;;;;;;;21.13;53.07;100465.34;1748082;81;21189;-60
2021/05/01 00:55:33;;;;;;;3.75;2.60;;;;;;;21.13;53.08;100462.57;1752280;80;21492;-62
2021/05/01 00:57:59;;;;;;;3.70;2.52;;;;;;;21.12;53.09;100462.35;1756761;80;21184;-61
2021/05/01 01:03:08;;;;;;;3.33;2.35;;;;;;;21.10;53.10;100457.67;1749810;80;21042;-60
2021/05/01 01:05:34;;;;;;;4.08;2.95;;;;;;;21.09;53.10;100456.05;1745763;80;22348;-60
2021/05/01 01:08:00;;;;;;;3.55;2.80;;;;;;;21.09;53.11;100448.34;1755290;81;21044;-61
2021/05/01 01:10:27;;;;;;;4.00;2.75;;;;;;;21.08;53.12;100447.53;1753402;80;21465;-60
2021/05/01 01:12:53;;;;;;;3.60;2.60;;;;;;;21.08;53.13;100452.24;1746597;80;21184;-61
2021/05/01 01:15:27;;;;;;;4.28;2.70;;;;;;;21.07;53.15;100442.31;1747580;80;21176;-60
2021/05/01 01:17:53;;;;;;;3.92;2.65;;;;;;;21.06;53.15;100447.03;1750250;80;21193;-61
2021/05/01 01:20:20;;;;;;;3.35;2.65;;;;;;;21.04;53.14;100446.56;1745572;80;21180;-60
2021/05/01 01:22:46;;;;;;;3.65;2.52;;;;;;;21.03;53.15;100449.08;1748059;81;21113;-60
2021/05/01 01:25:13;;;;;;;3.85;2.55;;;;;;;21.03;53.17;100451.03;1709631;82;21210;-60
2021/05/01 01:27:42;;;;;;;3.95;2.65;;;;;;;21.02;53.18;100452.16;1749297;80;21125;-60
2021/05/01 01:30:11;;;;;;;4.17;2.83;;;;;;;21.02;53.19;100456.31;1738340;81;21965;-60
2021/05/01 01:32:38;;;;;;;3.62;2.40;;;;;;;21.01;53.21;100456.88;1748298;81;21219;-61
2021/05/01 01:35:26;;;;;;;3.83;2.67;;;;;;;21.00;53.21;100447.55;1747704;81;21134;-60
2021/05/01 01:37:52;;;;;;;3.77;2.62;;;;;;;20.99;53.21;100448.11;1761417;80;21121;-60
2021/05/01 01:40:20;;;;;;;3.60;2.45;;;;;;;20.97;53.21;100444.84;1756484;80;21194;-60
2021/05/01 01:42:46;;;;;;;4.37;2.77;;;;;;;20.97;53.24;100437.94;1753686;80;22257;-59
2021/05/01 01:45:17;;;;;;;3.90;2.90;;;;;;;20.95;53.23;100439.67;1734415;80;21993;-61
2021/05/01 01:47:43;;;;;;;4.67;2.58;;;;;;;20.96;53.23;100433.56;1732173;80;21133;-61
2021/05/01 01:50:13;;;;;;;3.55;2.80;;;;;;;20.94;53.23;100436.66;1732743;80;21204;-61
2021/05/01 01:52:40;;;;;;;3.65;2.80;;;;;;;20.93;53.27;100428.67;1758488;80;21178;-61
2021/05/01 01:55:12;;;;;;;4.12;3.00;;;;;;;20.92;53.26;100422.33;1742835;80;21494;-62
2021/05/01 01:57:39;;;;;;;4.12;2.98;;;;;;;20.91;53.27;100417.14;1736699;80;21031;-61
2021/05/01 02:00:09;;;;;;;4.58;2.75;;;;;;;20.91;53.29;100415.77;1734115;80;21098;-61
2021/05/01 02:02:36;;;;;;;;;;;;;;;20.90;53.28;100422.42;1737782;80;20935;-62
2021/05/01 02:05:03;;;;;;;3.98;2.95;;;;;;;20.89;53.28;100418.03;1760972;80;20292;-61
2021/05/01 02:07:30;;;;;;;3.77;2.40;;;;;;;20.87;53.29;100426.67;1760755;80;21266;-61
2021/05/01 02:09:56;;;;;;;4.53;2.47;;;;;;;20.85;53.30;100423.98;1765128;80;21180;-62
2021/05/01 02:12:23;;;;;;;3.83;2.90;;;;;;;20.86;53.33;100431.14;1735351;80;21129;-62
2021/05/01 02:14:49;;;;;;;4.03;2.55;;;;;;;20.85;53.33;100423.41;1769611;80;22044;-62
2021/05/01 02:17:16;;;;;;;4.03;2.72;;;;;;;20.85;53.33;100424.80;1755825;80;21152;-61
2021/05/01 02:19:42;;;;;;;3.70;2.72;;;;;;;20.84;53.31;100421.78;1768246;80;21209;-61
2021/05/01 02:22:09;;;;;;;3.67;2.83;;;;;;;20.83;53.35;100413.83;1751166;80;21190;-61
2021/05/01 02:24:36;;;;;;;3.35;2.45;;;;;;;20.83;53.35;100424.33;1748385;80;21161;-61
2021/05/01 02:27:02;;;;;;;3.92;2.80;;;;;;;20.82;53.37;100427.41;1752017;80;21158;-61
2021/05/01 02:29:28;;;;;;;3.33;2.72;;;;;;;20.82;53.38;100436.52;1765511;80;21091;-61
2021/05/01 02:31:55;;;;;;;3.70;2.42;;;;;;;20.81;53.38;100432.12;1772028;80;21140;-61
2021/05/01 02:34:21;;;;;;;4.25;2.95;;;;;;;20.81;53.37;100433.50;1740854;80;21249;-61
2021/05/01 02:36:48;;;;;;;3.00;2.55;;;;;;;20.81;53.38;100433.50;1730604;80;21061;-61
2021/05/01 02:39:14;;;;;;;3.47;2.58;;;;;;;20.80;53.39;100433.25;1729158;80;21135;-61
2021/05/01 02:41:40;;;;;;;3.85;2.95;;;;;;;20.79;53.38;100433.00;1738092;80;21130;-61
2021/05/01 02:44:07;;;;;;;4.33;2.55;;;;;;;20.79;53.39;100427.47;1752799;80;21215;-62
2021/05/01 02:46:33;;;;;;;3.83;2.90;;;;;;;20.78;53.40;100430.02;1735850;80;21230;-61
2021/05/01 02:49:00;;;;;;;4.72;2.80;;;;;;;20.77;53.41;100439.45;1756986;80;21224;-61
2021/05/01 02:51:26;;;;;;;4.00;3.10;;;;;;;20.78;53.40;100451.33;1741869;80;21160;-61
2021/05/01 02:53:53;;;;;;;4.10;2.85;;;;;;;20.77;53.40;100458.80;1739286;80;21232;-61
2021/05/01 02:56:19;;;;;;;3.90;2.90;;;;;;;20.76;53.43;100460.50;1738018;80;21282;-61
2021/05/01 02:58:46;;;;;;;4.03;2.85;;;;;;;20.76;53.42;100458.55;1771231;80;21141;-61
2021/05/01 03:01:12;;;;;;;4.78;2.70;;;;;;;20.74;53.42;100445.64;1765177;80;21209;-63
2021/05/01 03:03:40;;;;;;;3.80;2.80;;;;;;;20.75;53.43;100449.22;1768520;80;21561;-61
2021/05/01 03:06:06;;;;;;;4.55;3.17;;;;;;;20.73;53.44;100438.48;1742212;81;21510;-61
2021/05/01 03:08:33;;;;;;;3.27;2.62;;;;;;;20.73;53.44;100437.09;1747279;80;21934;-61
2021/05/01 03:10:59;;;;;;;3.83;2.80;;;;;;;20.72;53.44;100435.46;1770088;80;22625;-62
2021/05/01 03:13:26;;;;;;;3.50;2.75;;;;;;;20.72;53.46;100449.85;1738714;80;21110;-61
2021/05/01 03:15:52;;;;;;;4.10;2.80;;;;;;;20.72;53.46;100452.62;1728070;81;21401;-62
2021/05/01 03:18:18;;;;;;;4.45;2.95;;;;;;;20.71;53.46;100457.33;1715488;83;21246;-64
2021/05/01 03:20:45;;;;;;;3.95;3.00;;;;;;;20.71;53.46;100455.16;1740741;81;21225;-62
2021/05/01 03:23:11;;;;;;;3.95;3.08;;;;;;;20.71;53.47;100455.16;1725064;82;21157;-61
2021/05/01 03:25:38;;;;;;;3.85;2.98;;;;;;;20.70;53.47;100450.20;1744927;80;21499;-60
2021/05/01 03:28:04;;;;;;;3.55;2.75;;;;;;;20.70;53.47;100452.14;1751862;80;21242;-61
2021/05/01 03:30:31;;;;;;;3.80;2.87;;;;;;;20.68;53.48;100447.50;1710125;82;21167;-61
2021/05/01 03:32:57;;;;;;;3.60;2.85;;;;;;;20.68;53.47;100446.94;1761338;80;21270;-61
2021/05/01 03:35:24;;;;;;;4.00;2.72;;;;;;;20.68;53.47;100446.94;1750817;81;21917;-61
2021/05/01 03:37:50;;;;;;;5.45;2.98;;;;;;;20.67;53.48;100442.53;1742259;80;21549;-61
2021/05/01 03:40:17;;;;;;;3.60;2.92;;;;;;;20.67;53.49;100445.86;1739647;80;21505;-61
2021/05/01 03:42:43;;;;;;;4.03;2.90;;;;;;;20.67;53.48;100448.06;1766334;80;21067;-61
2021/05/01 03:45:11;;;;;;;4.55;2.92;;;;;;;20.67;53.47;100452.21;1746498;80;22223;-61
2021/05/01 03:47:38;;;;;;;3.80;2.70;;;;;;;20.65;53.48;100454.50;1764013;80;21216;-61
2021/05/01 03:50:07;;;;;;;3.92;2.77;;;;;;;20.65;53.48;100457.27;1739805;80;21120;-61
2021/05/01 03:52:35;;;;;;;5.25;3.02;;;;;;;20.64;53.49;100445.96;1738990;80;21147;-61
2021/05/01 03:55:01;;;;;;;4.87;3.05;;;;;;;20.65;53.48;100448.98;1741718;80;21178;-61
2021/05/01 03:57:28;;;;;;;4.35;3.00;;;;;;;20.65;53.50;100448.16;1761850;80;23570;-61
2021/05/01 03:59:54;;;;;;;3.90;3.10;;;;;;;20.65;53.48;100446.21;1701310;83;21934;-61
2021/05/01 04:02:21;;;;;;;4.12;3.00;;;;;;;20.63;53.50;100448.48;1744612;81;21197;-61
2021/05/01 04:04:47;;;;;;;4.10;3.05;;;;;;;20.64;53.50;100463.93;1738828;81;21975;-61
2021/05/01 04:07:14;;;;;;;3.10;2.80;;;;;;;20.65;53.50;100470.27;1738960;81;21175;-63
2021/05/01 04:09:40;;;;;;;5.58;3.15;;;;;;;20.67;53.51;100484.00;1735566;81;21217;-61
2021/05/01 04:12:08;;;;;;;3.25;2.60;;;;;;;20.69;53.52;100474.83;1734051;81;21991;-61
2021/05/01 04:14:34;;;;;;;3.30;2.35;;;;;;;20.73;53.49;100466.69;1737208;81;21141;-61
2021/05/01 04:17:01;;;;;;;4.10;2.75;;;;;;;20.76;53.43;100461.31;1737787;81;21154;-61
2021/05/01 04:19:27;;;;;;;3.55;2.50;;;;;;;20.80;53.40;100456.75;1732975;81;21536;-61
2021/05/01 04:21:54;;;;;;;3.20;2.45;;;;;;;20.83;53.34;100450.59;1739242;81;21206;-61
2021/05/01 04:24:20;;;;;;;3.47;2.27;;;;;;;20.87;53.33;100454.89;1770303;80;21144;-61
2021/05/01 04:26:46;;;;;;;2.72;2.10;;;;;;;20.90;53.26;100467.48;1742311;80;21158;-61
2021/05/01 04:29:13;;;;;;;3.42;2.42;;;;;;;20.93;53.24;100480.65;1756496;80;21121;-61
2021/05/01 04:31:58;;;;;;;2.72;2.15;;;;;;;20.97;53.21;100487.16;1705765;83;21162;-61
2021/05/01 04:34:25;;;;;;;2.67;1.92;;;;;;;21.02;53.17;100497.80;1695784;82;21200;-61
2021/05/01 04:36:52;;;;;;;3.42;2.30;;;;;;;21.05;53.15;100503.48;1695692;82;21589;-62
2021/05/01 04:39:18;;;;;;;2.75;1.95;;;;;;;21.10;53.12;100498.35;1694643;82;21139;-61
2021/05/01 04:41:45;;;;;;;2.83;1.87;;;;;;;21.13;53.10;100505.45;1695655;83;21129;-61
2021/05/01 04:44:12;;;;;;;3.25;2.10;;;;;;;21.17;53.10;100502.87;1695630;82;21205;-61
2021/05/01 04:46:38;;;;;;;3.60;2.02;;;;;;;21.21;53.06;100501.06;1695101;82;21528;-61
2021/05/01 04:49:08;;;;;;;2.80;1.85;;;;;;;21.23;53.03;100499.59;1696250;82;21198;-61
2021/05/01 04:51:35;;;;;;;;;;;;;;;21.26;53.02;100496.15;1699569;82;21561;-61
2021/05/01 04:54:03;;;;;;;2.67;1.95;;;;;;;21.28;53.00;100506.90;1696391;82;20234;-61
2021/05/01 04:56:30;;;;;;;3.08;2.30;;;;;;;21.30;52.99;100515.09;1696751;82;21608;-60
2021/05/01 04:58:57;;;;;;;3.98;2.30;;;;;;;21.33;52.96;100517.80;1696319;82;23105;-61
2021/05/01 05:01:23;;;;;;;3.70;2.42;;;;;;;21.36;52.96;100535.94;1695194;82;21145;-61
2021/05/01 05:03:50;;;;;;;3.52;2.37;;;;;;;21.40;52.92;100536.08;1694979;82;21536;-61
2021/05/01 05:06:16;;;;;;;3.70;2.05;;;;;;;21.43;52.93;100534.03;1695488;82;22000;-61
2021/05/01 05:08:42;;;;;;;3.40;2.37;;;;;;;21.48;52.91;100533.86;1694823;82;21186;-61
2021/05/01 05:11:09;;;;;;;4.47;2.80;;;;;;;21.50;52.89;100538.52;1695592;83;21222;-61
2021/05/01 05:13:35;;;;;;;3.50;2.60;;;;;;;21.53;52.88;100535.64;1694796;82;21266;-60
2021/05/01 05:16:01;;;;;;;3.42;2.50;;;;;;;21.55;52.86;100531.98;1695828;82;21134;-61
2021/05/01 05:18:28;;;;;;;3.42;2.42;;;;;;;21.59;52.83;100523.27;1695039;82;21177;-62
2021/05/01 05:20:54;;;;;;;3.50;2.20;;;;;;;21.60;52.82;100519.36;1696782;82;21146;-61
2021/05/01 05:23:21;;;;;;;4.55;2.60;;;;;;;21.64;52.81;100521.70;1696759;82;22074;-61
2021/05/01 05:25:47;;;;;;;3.83;2.40;;;;;;;21.67;52.79;100527.95;1694633;82;21206;-61
2021/05/01 05:28:14;;;;;;;4.15;2.42;;;;;;;21.69;52.79;100524.27;1693181;82;21150;-61
2021/05/01 05:30:41;;;;;;;3.45;2.47;;;;;;;21.71;52.77;100520.61;1695568;83;21098;-61
2021/05/01 05:33:07;;;;;;;3.65;2.50;;;;;;;21.73;52.76;100519.12;1697089;82;21170;-61
2021/05/01 05:35:34;;;;;;;3.25;2.15;;;;;;;21.76;52.77;100516.27;1694243;82;21218;-61
2021/05/01 05:38:03;;;;;;;4.35;2.87;;;;;;;21.77;52.77;100521.46;1694496;82;21233;-61
2021/05/01 05:40:31;;;;;;;3.17;2.45;;;;;;;21.79;52.75;100527.50;1696455;82;21232;-61
2021/05/01 05:42:58;;;;;;;2.83;2.25;;;;;;;21.80;52.74;100533.28;1695048;82;21184;-61
2021/05/01 05:45:31;;;;;;;3.20;2.40;;;;;;;21.82;52.72;100534.31;1695916;82;21186;-60
2021/05/01 05:47:53;;;;;;;3.90;2.60;;;;;;;21.84;52.71;100523.73;1693493;82;21230;-61
2021/05/01 05:50:20;;;;;;;3.52;2.35;;;;;;;21.85;52.71;100526.75;1695079;82;21172;-61
2021/05/01 05:52:46;;;;;;;3.95;2.35;;;;;;;21.85;52.70;100519.83;1695139;82;21567;-61
2021/05/01 05:55:13;;;;;;;4.55;2.67;;;;;;;21.86;52.70;100524.19;1696145;82;21190;-60
2021/05/01 05:57:44;;;;;;;3.35;2.35;;;;;;;21.87;52.69;100525.83;1695205;82;21129;-61
2021/05/01 06:00:09;;;;;;;3.55;2.83;;;;;;;21.88;52.70;100524.69;1694723;82;21277;-61
2021/05/01 06:02:35;;;;;;;3.70;2.52;;;;;;;21.88;52.69;100524.12;1695734;82;21545;-61
2021/05/01 06:05:29;;;;;;;5.17;3.12;;;;;;;21.90;52.67;100529.91;1695996;82;21207;-61
2021/05/01 06:08:01;;;;;;;3.75;2.60;;;;;;;21.89;52.67;100527.70;1696833;82;21570;-61
2021/05/01 06:10:28;;;;;;;3.62;2.50;;;;;;;21.90;52.67;100535.45;1695634;82;21256;-61
2021/05/01 06:12:55;;;;;;;3.65;2.67;;;;;;;21.90;52.64;100546.52;1696161;82;21624;-61
2021/05/01 06:15:21;;;;;;;3.95;2.35;;;;;;;21.89;52.64;100556.78;1695786;82;21494;-61
2021/05/01 06:17:50;;;;;;;3.58;2.50;;;;;;;21.88;52.65;100555.97;1695827;83;21122;-60
2021/05/01 06:20:17;;;;;;;5.22;2.92;;;;;;;21.89;52.63;100558.17;1696382;82;21569;-61
2021/05/01 06:22:43;;;;;;;4.85;2.80;;;;;;;21.88;52.65;100547.66;1695756;82;21142;-61
2021/05/01 06:25:11;;;;;;;3.70;2.60;;;;;;;21.88;52.64;100535.77;1696047;82;22103;-62
2021/05/01 06:27:39;;;;;;;3.92;2.80;;;;;;;21.87;52.64;100534.95;1694989;82;22233;-61
2021/05/01 06:30:08;;;;;;;3.75;2.85;;;;;;;21.87;52.65;100536.34;1695010;82;21190;-62
2021/05/01 06:32:34;;;;;;;4.42;3.20;;;;;;;21.88;52.64;100537.97;1695587;82;21161;-62
2021/05/01 06:35:01;;;;;;;3.92;2.67;;;;;;;21.88;52.64;100542.13;1696161;82;21118;-61
2021/05/01 06:37:28;;;;;;;4.87;3.30;;;;;;;21.88;52.64;100539.92;1694990;82;21209;-62
2021/05/01 06:39:57;;;;;;;4.25;2.87;;;;;;;21.87;52.67;100522.48;1696243;82;21640;-61
2021/05/01 06:42:31;;;;;;;4.17;3.00;;;;;;;21.86;52.66;100513.93;1695034;83;21130;-61
2021/05/01 06:45:16;;;;;;;4.83;3.17;;;;;;;21.88;52.65;100513.61;1695005;82;21182;-61
2021/05/01 06:48:04;;;;;;;3.75;2.98;;;;;;;21.87;52.67;100515.56;1695552;82;21078;-61
2021/05/01 06:50:31;;;;;;;4.15;2.83;;;;;;;21.86;52.66;100516.70;1695452;82;21413;-62
2021/05/01 06:52:58;;;;;;;3.25;2.80;;;;;;;21.86;52.63;100518.66;1694708;82;21157;-61
2021/05/01 06:55:27;;;;;;;4.47;3.22;;;;;;;21.86;52.65;100526.39;1696430;82;21167;-61
2021/05/01 06:57:55;;;;;;;4.17;3.00;;;;;;;21.88;52.67;100524.12;1695917;82;21222;-61
2021/05/01 07:00:23;;;;;;;4.62;2.90;;;;;;;21.87;52.67;100516.95;1695349;83;21502;-61
2021/05/01 07:02:54;;;;;;;4.80;3.15;;;;;;;21.86;52.68;100512.55;1695595;82;21199;-61
2021/05/01 07:05:22;;;;;;;4.72;3.35;;;;;;;21.84;52.87;100519.01;1695977;82;21166;-61
2021/05/01 07:07:49;;;;;;;4.65;2.80;;;;;;;21.84;52.87;100519.01;1695275;82;21149;-61
2021/05/01 07:10:17;;;;;;;4.17;3.10;;;;;;;21.88;52.65;100527.45;1694936;82;21685;-61
2021/05/01 07:12:44;;;;;;;4.35;2.98;;;;;;;21.88;52.67;100542.13;1697952;82;21146;-61
2021/05/01 07:15:18;;;;;;;4.20;2.90;;;;;;;21.89;52.67;100537.39;1695350;82;22195;-61
2021/05/01 07:17:52;;;;;;;3.85;2.80;;;;;;;21.90;52.66;100545.14;1695941;82;21166;-61
2021/05/01 07:20:20;;;;;;;5.55;3.37;;;;;;;21.89;52.66;100547.09;1696822;82;21134;-61
2021/05/01 07:22:48;;;;;;;3.75;3.12;;;;;;;21.90;52.64;100557.00;1693947;82;21525;-60
2021/05/01 07:25:15;;;;;;;4.15;3.20;;;;;;;21.90;52.68;100570.06;1654486;83;21166;-61
2021/05/01 07:27:56;;;;;;;3.67;3.15;;;;;;;21.90;52.64;100561.75;1695514;82;21271;-62
2021/05/01 07:30:26;;;;;;;3.95;2.98;;;;;;;21.92;52.62;100570.53;1696420;82;21126;-60
2021/05/01 07:32:58;;;;;;;4.50;2.83;;;;;;;21.92;52.63;100571.91;1671002;84;21106;-60
2021/05/01 07:35:25;;;;;;;4.87;2.92;;;;;;;21.91;52.63;100573.05;1668265;84;21908;-61
2021/05/01 07:37:53;;;;;;;4.25;3.12;;;;;;;21.91;52.63;100570.28;1671067;84;21190;-61
2021/05/01 07:40:24;;;;;;;4.45;3.50;;;;;;;21.91;52.64;100564.74;1667791;84;21139;-60
2021/05/01 07:42:50;;;;;;;4.25;3.30;;;;;;;21.90;52.66;100561.75;1670108;84;21150;-60
2021/05/01 07:45:24;;;;;;;4.47;3.15;;;;;;;21.91;52.67;100557.82;1669269;84;21193;-61
2021/05/01 07:47:56;;;;;;;4.17;3.22;;;;;;;21.92;52.65;100560.84;1669631;84;21225;-61
2021/05/01 07:50:24;;;;;;;5.53;3.47;;;;;;;21.92;52.65;100556.68;1671484;84;21565;-61
2021/05/01 07:52:54;;;;;;;4.92;3.45;;;;;;;21.92;52.66;100559.45;1668786;84;21204;-61
2021/05/01 07:55:21;;;;;;;5.17;3.52;;;;;;;21.93;52.64;100553.62;1642531;85;21165;-61
2021/05/01 07:57:48;;;;;;;4.20;3.05;;;;;;;21.95;52.63;100549.11;1661814;85;21160;-61
2021/05/01 08:00:19;;;;;;;4.75;3.37;;;;;;;21.95;52.61;100545.77;1657608;85;21165;-61
2021/05/01 08:02:46;;;;;;;4.42;3.10;;;;;;;21.97;52.62;100549.04;1660734;85;21177;-61
2021/05/01 08:05:14;;;;;;;5.22;3.50;;;;;;;21.97;52.61;100551.81;1658659;85;21284;-61
2021/05/01 08:07:41;;;;;;;4.75;2.95;;;;;;;21.98;52.60;100552.03;1656692;85;20976;-61
2021/05/01 08:10:09;;;;;;;5.10;3.15;;;;;;;22.00;52.61;100558.63;1657615;85;21098;-61
2021/05/01 08:12:36;;;;;;;4.42;3.60;;;;;;;21.99;52.58;100559.77;1658989;85;21193;-61
2021/05/01 08:15:04;;;;;;;4.58;3.27;;;;;;;22.00;52.59;100553.91;1661840;85;21696;-61
2021/05/01 08:17:31;;;;;;;4.37;3.10;;;;;;;22.01;52.56;100549.18;1658984;85;22176;-61
2021/05/01 08:19:57;;;;;;;5.00;3.30;;;;;;;22.00;52.56;100551.14;1658623;85;21189;-60
2021/05/01 08:22:23;;;;;;;4.67;3.30;;;;;;;22.02;52.56;100554.97;1660410;84;20991;-60
2021/05/01 08:24:50;;;;;;;4.92;3.47;;;;;;;22.03;52.54;100552.41;1660858;85;21110;-61
2021/05/01 08:27:16;;;;;;;4.70;3.35;;;;;;;22.05;52.52;100561.22;1659600;85;21165;-61
2021/05/01 08:29:43;;;;;;;5.47;3.37;;;;;;;22.05;52.52;100560.65;1632480;86;22112;-61
2021/05/01 08:32:10;;;;;;;5.67;4.03;;;;;;;22.06;52.51;100558.70;1681031;84;21238;-61
2021/05/01 08:34:36;;;;;;;4.72;3.47;;;;;;;22.07;52.51;100558.91;1681582;83;21064;-61
2021/05/01 08:37:03;;;;;;;6.05;3.90;;;;;;;22.08;52.49;100565.52;1681837;83;21159;-61
2021/05/01 08:39:29;;;;;;;5.78;3.42;;;;;;;22.08;52.49;100562.75;1685468;83;21151;-61
2021/05/01 08:41:55;;;;;;;5.47;3.67;;;;;;;22.10;52.47;100566.58;1687698;84;21201;-60
2021/05/01 08:44:22;;;;;;;4.87;3.67;;;;;;;22.09;52.47;100567.72;1687438;83;21166;-62
2021/05/01 08:46:48;;;;;;;5.40;3.75;;;;;;;22.11;52.45;100568.18;1687914;83;21188;-61
2021/05/01 08:49:15;;;;;;;4.45;3.37;;;;;;;22.11;52.45;100558.48;1697990;83;21195;-61
2021/05/01 08:51:43;;;;;;;5.47;3.80;;;;;;;22.13;52.43;100560.36;1694691;83;21266;-61
2021/05/01 08:54:12;;;;;;;4.47;3.45;;;;;;;22.13;52.41;100553.44;1691755;83;21209;-61
2021/05/01 08:56:40;;;;;;;6.58;4.00;;;;;;;22.13;52.41;100554.25;1693202;83;21179;-61
2021/05/01 08:59:07;;;;;;;5.15;3.42;;;;;;;22.14;52.40;100544.80;1688091;83;21235;-61
2021/05/01 09:01:36;;;;;;;5.70;3.72;;;;;;;22.15;52.42;100555.31;1692698;83;21192;-61
2021/05/01 09:04:03;;;;;;;6.03;4.50;;;;;;;22.15;52.37;100547.78;1678469;83;21629;-61
2021/05/01 09:06:30;;;;;;;4.85;3.60;;;;;;;22.17;52.36;100543.30;1682930;83;21412;-62
2021/05/01 09:08:58;;;;;;;6.95;3.67;;;;;;;22.18;52.35;100538.01;1682191;83;21842;-61
2021/05/01 09:11:41;;;;;;;6.65;4.00;;;;;;;22.19;52.35;100539.64;1680867;83;21199;-61
2021/05/01 09:14:29;;;;;;;5.17;3.60;;;;;;;22.19;52.33;100534.88;1694820;83;21088;-61
2021/05/01 09:17:06;;;;;;;5.03;3.72;;;;;;;22.20;52.34;100528.20;1681896;83;21177;-61
2021/05/01 09:19:38;;;;;;;4.67;3.87;;;;;;;22.22;52.28;100526.50;1698101;83;21487;-61
2021/05/01 09:22:07;;;;;;;4.37;3.42;;;;;;;22.22;52.29;100515.41;1697136;83;21142;-61
2021/05/01 09:24:34;;;;;;;5.72;4.12;;;;;;;22.22;52.26;100499.59;1686141;83;21168;-61
2021/05/01 09:27:02;;;;;;;5.37;3.80;;;;;;;22.22;52.26;100495.44;1674656;84;21092;-61
2021/05/01 09:29:36;;;;;;;5.30;3.70;;;;;;;22.23;52.26;100501.23;1696754;83;21475;-61
2021/05/01 09:32:06;;;;;;;4.95;3.77;;;;;;;22.24;52.25;100497.86;1688466;83;21197;-60
2021/05/01 09:34:48;;;;;;;6.30;3.92;;;;;;;22.25;52.25;100505.03;1690532;83;21169;-60
2021/05/01 09:37:16;;;;;;;5.22;4.03;;;;;;;22.25;52.24;100506.42;1682816;83;21139;-61
2021/05/01 09:39:51;;;;;;;5.40;3.87;;;;;;;22.26;52.24;100506.66;1672995;84;21223;-61
2021/05/01 09:42:19;;;;;;;4.87;3.77;;;;;;;22.26;52.23;100506.66;1690298;84;21205;-61
2021/05/01 09:44:46;;;;;;;5.40;3.83;;;;;;;;;;1690960;83;21482;-61
2021/05/01 09:47:14;;;;;;;6.12;4.00;;;;;;;;;;1689798;83;21225;-62
2021/05/01 09:49:40;;;;;;;6.00;4.35;;;;;;;22.28;52.22;100509.89;1683530;83;21503;-61
2021/05/01 09:52:10;;;;;;;5.37;3.95;;;;;;;22.28;52.21;100510.70;1697761;84;21202;-62
2021/05/01 09:54:39;;;;;;;5.15;3.98;;;;;;;22.29;52.20;100503.20;1697950;83;21686;-61
2021/05/01 09:57:08;;;;;;;5.28;3.67;;;;;;;22.30;52.19;100503.45;1687163;83;21188;-61
2021/05/01 09:59:50;;;;;;;6.70;3.95;;;;;;;22.31;52.18;100496.20;1687887;83;21171;-61
2021/05/01 10:02:19;;;;;;;5.15;4.00;;;;;;;22.33;52.14;100484.76;1679143;83;21531;-60
2021/05/01 10:05:12;;;;;;;5.87;4.05;;;;;;;22.35;52.15;100482.47;1679122;83;21290;-61
2021/05/01 10:07:50;;;;;;;5.75;3.67;;;;;;;22.37;52.12;100485.70;1696264;83;21256;-62
2021/05/01 10:10:16;;;;;;;3.95;3.27;;;;;;;22.39;52.08;100479.84;1671997;83;21146;-61
2021/05/01 10:12:43;;;;;;;5.75;4.05;;;;;;;22.39;52.07;100469.56;1696777;83;21211;-61
2021/05/01 10:15:24;;;;;;;5.53;3.83;;;;;;;22.38;52.05;100458.23;1688577;83;21622;-61
2021/05/01 10:17:50;;;;;;;5.08;3.92;;;;;;;22.39;52.03;100459.05;1692507;83;21167;-61
2021/05/01 10:20:17;;;;;;;5.33;3.62;;;;;;;22.40;52.00;100475.92;1682683;83;21044;-61
2021/05/01 10:22:45;;;;;;;5.70;4.08;;;;;;;22.40;52.01;100489.21;1686245;83;22187;-61
2021/05/01 10:25:21;;;;;;;4.40;3.70;;;;;;;22.41;52.00;100488.04;1688023;83;21183;-60
2021/05/01 10:28:08;;;;;;;5.40;3.95;;;;;;;22.42;51.97;100481.92;1685589;83;21547;-61
2021/05/01 10:30:54;;;;;;;4.92;3.70;;;;;;;22.44;51.93;100478.25;1681934;84;21206;-61
2021/05/01 10:33:31;;;;;;;4.97;3.27;;;;;;;22.44;51.91;100476.30;1687848;84;21139;-62
2021/05/01 10:36:05;;;;;;;4.72;3.58;;;;;;;22.48;51.89;100477.81;1683778;83;21142;-62
2021/05/01 10:38:33;;;;;;;4.67;3.50;;;;;;;22.49;51.86;100462.81;1688106;83;21175;-61
2021/05/01 10:41:04;;;;;;;5.25;3.80;;;;;;;22.49;51.81;100448.34;1679665;83;21205;-61
2021/05/01 10:43:37;;;;;;;4.90;3.55;;;;;;;22.51;51.80;100452.99;1683778;83;21563;-61
2021/05/01 10:46:11;;;;;;;4.55;3.60;;;;;;;22.53;51.79;100456.22;1680882;83;21160;-61
2021/05/01 10:48:48;;;;;;;6.53;4.12;;;;;;;22.55;51.76;100458.66;1682676;83;21105;-61
2021/05/01 10:51:20;;;;;;;4.72;3.50;;;;;;;22.57;51.77;100461.35;1686966;83;21219;-61
2021/05/01 10:53:50;;;;;;;4.65;3.60;;;;;;;22.58;51.75;100457.98;1682624;83;22628;-62
2021/05/01 10:56:23;;;;;;;5.22;3.62;;;;;;;22.61;51.76;100461.48;1684281;83;21163;-62
2021/05/01 10:58:50;;;;;;;4.40;3.47;;;;;;;22.63;51.74;100461.94;1678848;83;21116;-62
2021/05/01 11:01:35;;;;;;;5.60;3.52;;;;;;;22.66;51.74;100470.98;1683280;83;21612;-61
2021/05/01 11:04:06;;;;;;;4.30;3.25;;;;;;;22.68;51.73;100472.83;1681446;83;21574;-62
2021/05/01 11:06:38;;;;;;;4.03;3.17;;;;;;;22.71;51.71;100467.44;1680086;83;20985;-61
2021/05/01 11:09:09;;;;;;;5.55;3.75;;;;;;;22.73;51.70;100459.61;1684370;83;21243;-62
2021/05/01 11:11:40;;;;;;;5.30;4.05;;;;;;;22.76;51.69;100465.84;1682558;83;21226;-61
2021/05/01 11:14:26;;;;;;;4.58;3.45;;;;;;;22.77;51.69;100455.57;1684549;83;21644;-61
2021/05/01 11:17:06;;;;;;;5.60;3.92;;;;;;;22.81;51.67;100452.35;1681664;83;21187;-60
2021/05/01 11:19:33;;;;;;;5.37;3.92;;;;;;;22.85;51.65;100449.70;1682566;83;21116;-61
2021/05/01 11:21:59;;;;;;;4.50;3.22;;;;;;;22.88;51.61;100447.05;1656475;83;21195;-61
2021/05/01 11:24:25;;;;;;;5.60;3.90;;;;;;;22.89;51.59;100443.70;1681560;83;21175;-60
2021/05/01 11:26:52;;;;;;;4.50;3.25;;;;;;;22.92;51.57;100447.98;1684321;83;21196;-60
2021/05/01 11:29:20;;;;;;;4.53;3.25;;;;;;;22.95;51.55;100440.96;1680723;83;21187;-60
2021/05/01 11:31:47;;;;;;;5.35;4.03;;;;;;;22.96;51.54;100437.02;1684430;83;21239;-60
2021/05/01 11:34:15;;;;;;;4.95;3.12;;;;;;;22.99;51.53;100435.77;1688766;83;21582;-60
2021/05/01 11:36:56;;;;;;;4.78;3.37;;;;;;;23.03;51.51;100427.57;1698097;83;21116;-61